createdAt,value
2017-07-08T00:01:17.658Z,85.80
2017-07-08T00:03:46.140Z,86.10
2017-07-08T00:06:15.358Z,86.70
2017-07-08T00:08:44.080Z,86.70
2017-07-08T00:11:13.218Z,87.00
2017-07-08T00:14:45.331Z,87.30
2017-07-08T00:17:13.836Z,87.50
2017-07-08T00:19:42.404Z,88.00
2017-07-08T00:22:10.946Z,87.80
2017-07-08T00:24:39.591Z,88.30
2017-07-08T00:27:08.655Z,88.30
2017-07-08T00:29:37.459Z,88.60
2017-07-08T00:32:06.027Z,88.60
2017-07-08T00:34:34.639Z,89.00
2017-07-08T00:37:03.154Z,89.20
2017-07-08T00:39:31.641Z,89.40
2017-07-08T00:42:00.097Z,89.70
2017-07-08T00:44:28.765Z,90.10
2017-07-08T00:46:57.253Z,90.10
2017-07-08T00:49:26.214Z,90.10
2017-07-08T00:51:54.722Z,90.00
2017-07-08T00:54:23.208Z,90.20
2017-07-08T00:56:51.671Z,89.90
2017-07-08T00:59:20.472Z,90.00
2017-07-08T01:01:48.977Z,89.50
2017-07-08T01:04:17.437Z,89.50
2017-07-08T01:06:46.441Z,89.30
2017-07-08T01:09:15.138Z,89.20
2017-07-08T01:11:43.671Z,89.50
2017-07-08T01:14:12.935Z,89.50
2017-07-08T01:16:41.587Z,89.40
2017-07-08T01:19:10.086Z,88.80
2017-07-08T01:21:38.727Z,89.20
2017-07-08T01:24:07.360Z,89.10
2017-07-08T01:26:35.920Z,88.90
2017-07-08T01:29:04.495Z,89.10
2017-07-08T01:31:34.445Z,89.00
2017-07-08T01:34:03.009Z,89.00
2017-07-08T01:36:31.473Z,89.50
2017-07-08T01:39:00.670Z,89.30
2017-07-08T01:41:29.169Z,89.30
2017-07-08T01:43:57.779Z,89.10
2017-07-08T01:46:26.299Z,89.10
2017-07-08T01:48:54.852Z,89.50
2017-07-08T01:51:23.821Z,89.70
2017-07-08T01:53:52.359Z,90.20
2017-07-08T01:56:20.933Z,90.20
2017-07-08T01:58:49.424Z,90.50
2017-07-08T02:01:17.907Z,90.60
2017-07-08T02:03:46.479Z,90.80
2017-07-08T02:06:14.992Z,91.00
2017-07-08T02:08:43.489Z,91.10
2017-07-08T02:11:12.108Z,91.20
2017-07-08T02:13:40.604Z,91.40
2017-07-08T02:16:09.320Z,91.70
2017-07-08T02:18:38.870Z,91.90
2017-07-08T02:21:07.396Z,91.90
2017-07-08T02:23:35.984Z,92.30
2017-07-08T02:26:04.486Z,92.40
2017-07-08T02:28:33.140Z,92.70
2017-07-08T02:31:01.655Z,93.10
2017-07-08T02:33:30.102Z,93.10
2017-07-08T02:35:58.826Z,93.20
2017-07-08T02:38:27.514Z,93.30
2017-07-08T02:40:56.030Z,93.00
2017-07-08T02:43:25.068Z,93.10
2017-07-08T02:45:53.735Z,93.30
2017-07-08T02:48:22.221Z,93.20
2017-07-08T02:50:50.681Z,93.30
2017-07-08T02:53:19.467Z,93.30
2017-07-08T02:55:47.997Z,93.40
2017-07-08T02:58:16.652Z,93.70
2017-07-08T03:00:45.443Z,93.70
2017-07-08T03:03:14.332Z,93.80
2017-07-08T03:05:42.830Z,94.10
2017-07-08T03:08:11.373Z,94.20
2017-07-08T03:10:39.833Z,94.30
2017-07-08T03:13:09.044Z,94.70
2017-07-08T03:15:38.389Z,94.70
2017-07-08T03:18:06.952Z,94.60
2017-07-08T03:20:35.643Z,94.80
2017-07-08T03:23:04.276Z,95.10
2017-07-08T03:25:32.793Z,95.00
2017-07-08T03:28:01.726Z,95.30
2017-07-08T03:30:30.214Z,95.20
2017-07-08T03:32:58.785Z,94.90
2017-07-08T03:35:27.469Z,95.00
2017-07-08T03:37:56.086Z,95.20
2017-07-08T03:40:25.353Z,94.90
2017-07-08T03:42:53.836Z,94.90
2017-07-08T03:45:22.296Z,94.70
2017-07-08T03:47:50.782Z,94.80
2017-07-08T03:50:19.595Z,95.00
2017-07-08T03:52:49.200Z,94.90
2017-07-08T03:55:18.009Z,95.00
2017-07-08T03:57:46.676Z,95.00
2017-07-08T04:00:15.351Z,95.40
2017-07-08T04:02:44.002Z,95.80
2017-07-08T04:05:12.546Z,96.00
2017-07-08T04:07:41.021Z,95.90
2017-07-08T04:10:09.729Z,96.30
2017-07-08T04:12:38.202Z,95.80
2017-07-08T04:15:06.769Z,96.20
2017-07-08T04:17:36.577Z,96.00
2017-07-08T04:20:05.186Z,96.10
2017-07-08T04:22:33.673Z,95.90
2017-07-08T04:25:02.147Z,96.00
2017-07-08T04:27:30.868Z,96.60
2017-07-08T04:29:59.509Z,96.70
2017-07-08T04:32:28.116Z,96.60
2017-07-08T04:34:56.834Z,96.50
2017-07-08T04:37:26.096Z,96.70
2017-07-08T04:39:54.666Z,96.60
2017-07-08T04:42:23.558Z,96.70
2017-07-08T04:44:52.398Z,97.00
2017-07-08T04:47:20.905Z,96.60
2017-07-08T04:49:49.473Z,96.50
2017-07-08T04:52:17.965Z,96.40
2017-07-08T04:54:46.470Z,96.60
2017-07-08T04:57:14.938Z,96.60
2017-07-08T04:59:43.474Z,97.60
2017-07-08T05:02:12.383Z,96.10
2017-07-08T05:04:41.678Z,95.90
2017-07-08T05:07:10.376Z,96.30
2017-07-08T05:09:38.817Z,96.50
2017-07-08T05:12:07.720Z,96.00
2017-07-08T05:14:36.185Z,96.60
2017-07-08T05:17:05.276Z,96.10
2017-07-08T05:19:33.966Z,96.10
2017-07-08T05:22:02.651Z,96.10
2017-07-08T05:24:31.235Z,96.10
2017-07-08T05:26:59.722Z,95.20
2017-07-08T05:29:28.386Z,95.90
2017-07-08T05:31:57.181Z,96.10
2017-07-08T05:34:25.793Z,96.20
2017-07-08T05:36:54.425Z,95.90
2017-07-08T05:39:22.918Z,96.20
2017-07-08T05:41:52.564Z,95.60
2017-07-08T05:44:21.657Z,95.60
2017-07-08T05:46:50.397Z,95.50
2017-07-08T05:49:18.892Z,95.30
2017-07-08T05:51:48.145Z,94.70
2017-07-08T05:54:16.737Z,94.60
2017-07-08T05:56:45.274Z,93.60
2017-07-08T05:59:14.069Z,94.30
2017-07-08T06:01:42.677Z,93.20
2017-07-08T06:04:11.574Z,92.80
2017-07-08T06:06:40.102Z,92.10
2017-07-08T06:09:10.705Z,91.60
2017-07-08T06:11:39.271Z,91.50
2017-07-08T06:14:07.985Z,91.50
2017-07-08T06:16:36.634Z,91.60
2017-07-08T06:19:05.085Z,90.20
2017-07-08T06:21:36.273Z,89.40
2017-07-08T06:24:04.948Z,89.20
2017-07-08T06:26:33.401Z,87.50
2017-07-08T06:29:01.950Z,88.20
2017-07-08T06:31:30.448Z,87.40
2017-07-08T06:33:59.277Z,87.20
2017-07-08T06:36:27.862Z,87.10
2017-07-08T06:38:56.560Z,88.30
2017-07-08T06:41:25.180Z,87.10
2017-07-08T06:43:53.659Z,87.50
2017-07-08T06:46:22.147Z,87.20
2017-07-08T06:48:50.644Z,85.70
2017-07-08T06:51:19.232Z,85.50
2017-07-08T06:53:47.765Z,84.70
2017-07-08T06:56:16.252Z,81.80
2017-07-08T06:58:45.113Z,83.30
2017-07-08T07:01:13.809Z,81.60
2017-07-08T07:03:42.280Z,81.20
2017-07-08T07:06:10.733Z,80.90
2017-07-08T07:08:39.494Z,80.20
2017-07-08T07:11:07.985Z,80.00
2017-07-08T07:13:36.590Z,80.00
2017-07-08T07:16:07.265Z,75.70
2017-07-08T07:18:35.226Z,75.70
2017-07-08T07:21:03.968Z,73.80
2017-07-08T07:23:32.437Z,70.60
2017-07-08T07:26:00.261Z,66.40
2017-07-08T07:28:28.149Z,63.00
2017-07-08T07:30:56.137Z,61.70
2017-07-08T07:33:24.096Z,58.70
2017-07-08T07:35:52.107Z,58.10
2017-07-08T07:38:20.130Z,55.70
2017-07-08T07:40:52.157Z,54.70
2017-07-08T07:43:20.052Z,50.30
2017-07-08T07:45:48.147Z,54.00
2017-07-08T07:48:16.021Z,50.10
2017-07-08T07:50:43.910Z,49.80
2017-07-08T07:53:12.165Z,55.70
2017-07-08T07:55:40.156Z,55.80
2017-07-08T07:58:07.993Z,55.00
2017-07-08T08:00:35.886Z,55.20
2017-07-08T08:03:04.148Z,54.20
2017-07-08T08:05:32.081Z,52.20
2017-07-08T08:08:02.365Z,49.30
2017-07-08T08:10:30.389Z,47.70
2017-07-08T08:12:58.306Z,47.50
2017-07-08T08:15:26.150Z,47.60
2017-07-08T08:17:54.095Z,45.90
2017-07-08T08:20:22.061Z,46.60
2017-07-08T08:22:50.024Z,47.10
2017-07-08T08:25:17.905Z,44.40
2017-07-08T08:27:45.770Z,47.00
2017-07-08T08:30:13.617Z,47.50
2017-07-08T08:32:41.479Z,49.20
2017-07-08T08:35:09.682Z,47.70
2017-07-08T08:37:37.599Z,46.90
2017-07-08T08:40:05.847Z,50.00
2017-07-08T08:42:33.927Z,48.50
2017-07-08T08:45:02.494Z,46.90
2017-07-08T08:47:30.409Z,47.30
2017-07-08T08:49:58.339Z,49.90
2017-07-08T08:52:26.350Z,50.70
2017-07-08T08:54:54.955Z,49.70
2017-07-08T08:57:23.265Z,49.70
2017-07-08T08:59:51.683Z,49.30
2017-07-08T09:02:19.522Z,48.70
2017-07-08T09:04:47.724Z,48.50
2017-07-08T09:07:16.255Z,47.00
2017-07-08T09:09:44.148Z,46.70
2017-07-08T09:12:12.136Z,50.20
2017-07-08T09:14:40.020Z,50.30
2017-07-08T09:17:08.383Z,49.70
2017-07-08T09:19:36.834Z,49.80
2017-07-08T09:22:04.725Z,48.70
2017-07-08T09:24:32.611Z,48.90
2017-07-08T09:27:00.479Z,49.40
2017-07-08T09:29:28.389Z,47.30
2017-07-08T09:31:56.293Z,44.90
2017-07-08T09:34:24.221Z,45.40
2017-07-08T09:36:52.145Z,45.70
2017-07-08T09:39:19.992Z,45.90
2017-07-08T09:41:47.974Z,44.60
2017-07-08T09:44:16.405Z,47.00
2017-07-08T09:46:45.077Z,49.30
2017-07-08T09:49:12.984Z,53.20
2017-07-08T09:51:41.048Z,53.40
2017-07-08T09:54:09.860Z,53.80
2017-07-08T09:56:37.826Z,52.90
2017-07-08T09:59:05.891Z,54.50
2017-07-08T10:01:33.792Z,52.10
2017-07-08T10:04:03.372Z,54.20
2017-07-08T10:06:31.319Z,53.70
2017-07-08T10:08:59.181Z,52.90
2017-07-08T10:11:27.910Z,53.50
2017-07-08T10:13:55.951Z,53.00
2017-07-08T10:16:23.895Z,54.20
2017-07-08T10:18:51.813Z,55.40
2017-07-08T10:21:20.133Z,54.10
2017-07-08T10:23:50.141Z,56.10
2017-07-08T10:26:18.100Z,56.00
2017-07-08T10:28:46.045Z,56.90
2017-07-08T10:31:13.902Z,58.50
2017-07-08T10:33:41.974Z,60.30
2017-07-08T10:36:09.901Z,61.10
2017-07-08T10:38:38.567Z,59.50
2017-07-08T10:41:06.904Z,59.40
2017-07-08T10:43:34.878Z,58.90
2017-07-08T10:46:03.327Z,60.40
2017-07-08T10:48:31.464Z,59.40
2017-07-08T10:50:59.454Z,58.40
2017-07-08T10:53:28.123Z,53.50
2017-07-08T10:55:55.994Z,53.40
2017-07-08T10:58:24.026Z,52.30
2017-07-08T11:00:52.008Z,52.90
2017-07-08T11:03:20.249Z,50.30
2017-07-08T11:05:48.340Z,50.90
2017-07-08T11:08:16.209Z,54.40
2017-07-08T11:10:44.468Z,55.30
2017-07-08T11:13:12.326Z,56.10
2017-07-08T11:15:40.926Z,60.30
2017-07-08T11:18:09.011Z,60.30
2017-07-08T11:20:36.916Z,62.00
2017-07-08T11:23:06.434Z,63.00
2017-07-08T11:25:35.258Z,62.70
2017-07-08T11:28:04.080Z,61.30
2017-07-08T11:30:32.565Z,62.80
2017-07-08T11:33:01.079Z,63.70
2017-07-08T11:35:29.605Z,63.10
2017-07-08T11:37:58.190Z,61.80
2017-07-08T11:40:26.959Z,62.20
2017-07-08T11:42:56.519Z,62.60
2017-07-08T11:45:25.297Z,62.30
2017-07-08T11:47:53.801Z,61.70
2017-07-08T11:50:22.802Z,62.30
2017-07-08T11:52:52.861Z,62.20
